sensor_id;sensor_type;location;lat;lon;timestamp;P1;durP1;ratioP1;P2;durP2;ratioP2
22502;SDS011;11418;48.118;9.992;2023-02-01T00:02:11;7.95;;;3.33;;
22502;SDS011;11418;48.118;9.992;2023-02-01T00:06:11;7.20;;;3.28;;
22502;SDS011;11418;48.118;9.992;2023-02-01T00:10:12;5.97;;;3.10;;
22502;SDS011;11418;48.118;9.992;2023-02-01T00:14:13;6.28;;;2.95;;
22502;SDS011;11418;48.118;9.992;2023-02-01T00:18:13;7.53;;;3.03;;
22502;SDS011;11418;48.118;9.992;2023-02-01T00:22:14;8.02;;;3.55;;
22502;SDS011;11418;48.118;9.992;2023-02-01T00:26:15;6.28;;;3.55;;
22502;SDS011;11418;48.118;9.992;2023-02-01T00:30:22;6.70;;;3.47;;
22502;SDS011;11418;48.118;9.992;2023-02-01T00:34:23;5.22;;;2.40;;
22502;SDS011;11418;48.118;9.992;2023-02-01T00:38:24;7.35;;;3.75;;
22502;SDS011;11418;48.118;9.992;2023-02-01T00:42:25;7.97;;;3.80;;
22502;SDS011;11418;48.118;9.992;2023-02-01T00:46:25;7.10;;;3.83;;
22502;SDS011;11418;48.118;9.992;2023-02-01T00:50:26;8.30;;;3.45;;
22502;SDS011;11418;48.118;9.992;2023-02-01T00:54:26;7.82;;;3.70;;
22502;SDS011;11418;48.118;9.992;2023-02-01T00:58:27;5.97;;;3.70;;
22502;SDS011;11418;48.118;9.992;2023-02-01T01:02:28;6.45;;;3.47;;
22502;SDS011;11418;48.118;9.992;2023-02-01T01:06:30;9.15;;;3.67;;
22502;SDS011;11418;48.118;9.992;2023-02-01T01:10:32;4.65;;;3.03;;
22502;SDS011;11418;48.118;9.992;2023-02-01T01:14:32;5.95;;;3.75;;
22502;SDS011;11418;48.118;9.992;2023-02-01T01:18:33;6.28;;;3.35;;
22502;SDS011;11418;48.118;9.992;2023-02-01T01:22:34;5.03;;;3.03;;
22502;SDS011;11418;48.118;9.992;2023-02-01T01:26:35;10.02;;;3.33;;
22502;SDS011;11418;48.118;9.992;2023-02-01T01:30:35;4.75;;;2.80;;
22502;SDS011;11418;48.118;9.992;2023-02-01T01:34:36;8.20;;;3.13;;
22502;SDS011;11418;48.118;9.992;2023-02-01T01:38:37;10.00;;;2.92;;
22502;SDS011;11418;48.118;9.992;2023-02-01T01:42:39;5.70;;;3.20;;
22502;SDS011;11418;48.118;9.992;2023-02-01T01:46:41;5.18;;;2.78;;
22502;SDS011;11418;48.118;9.992;2023-02-01T01:50:50;5.53;;;2.90;;
22502;SDS011;11418;48.118;9.992;2023-02-01T01:54:57;4.38;;;2.47;;
22502;SDS011;11418;48.118;9.992;2023-02-01T01:58:58;4.97;;;2.58;;
22502;SDS011;11418;48.118;9.992;2023-02-01T02:03:02;5.25;;;3.22;;
22502;SDS011;11418;48.118;9.992;2023-02-01T02:07:13;6.00;;;2.65;;
22502;SDS011;11418;48.118;9.992;2023-02-01T02:11:17;5.90;;;3.33;;
22502;SDS011;11418;48.118;9.992;2023-02-01T02:15:18;5.97;;;3.20;;
22502;SDS011;11418;48.118;9.992;2023-02-01T02:23:51;6.07;;;3.08;;
22502;SDS011;11418;48.118;9.992;2023-02-01T02:28:23;4.90;;;2.03;;
22502;SDS011;11418;48.118;9.992;2023-02-01T02:32:56;6.70;;;3.08;;
22502;SDS011;11418;48.118;9.992;2023-02-01T02:37:09;4.13;;;2.25;;
22502;SDS011;11418;48.118;9.992;2023-02-01T02:46:23;7.25;;;2.15;;
22502;SDS011;11418;48.118;9.992;2023-02-01T02:50:58;7.13;;;2.70;;
22502;SDS011;11418;48.118;9.992;2023-02-01T02:55:26;4.85;;;2.88;;
22502;SDS011;11418;48.118;9.992;2023-02-01T02:59:28;4.85;;;2.55;;
22502;SDS011;11418;48.118;9.992;2023-02-01T03:03:49;3.72;;;2.30;;
22502;SDS011;11418;48.118;9.992;2023-02-01T03:12:17;3.92;;;2.65;;
22502;SDS011;11418;48.118;9.992;2023-02-01T03:16:40;5.53;;;2.83;;
22502;SDS011;11418;48.118;9.992;2023-02-01T03:20:58;5.78;;;3.28;;
22502;SDS011;11418;48.118;9.992;2023-02-01T03:25:14;5.22;;;2.60;;
22502;SDS011;11418;48.118;9.992;2023-02-01T03:29:31;4.25;;;2.42;;
22502;SDS011;11418;48.118;9.992;2023-02-01T03:33:40;6.10;;;2.72;;
22502;SDS011;11418;48.118;9.992;2023-02-01T03:37:41;7.28;;;2.97;;
22502;SDS011;11418;48.118;9.992;2023-02-01T03:41:43;5.60;;;3.13;;
22502;SDS011;11418;48.118;9.992;2023-02-01T03:45:50;7.38;;;2.78;;
22502;SDS011;11418;48.118;9.992;2023-02-01T03:50:30;5.55;;;3.15;;
22502;SDS011;11418;48.118;9.992;2023-02-01T03:54:25;9.27;;;2.75;;
22502;SDS011;11418;48.118;9.992;2023-02-01T03:58:28;2.95;;;1.20;;
22502;SDS011;11418;48.118;9.992;2023-02-01T04:02:28;3.90;;;2.88;;
22502;SDS011;11418;48.118;9.992;2023-02-01T04:06:29;5.70;;;2.60;;
22502;SDS011;11418;48.118;9.992;2023-02-01T04:10:29;5.18;;;3.20;;
22502;SDS011;11418;48.118;9.992;2023-02-01T04:14:30;5.70;;;2.95;;
22502;SDS011;11418;48.118;9.992;2023-02-01T04:18:30;3.70;;;2.30;;
22502;SDS011;11418;48.118;9.992;2023-02-01T04:22:31;11.50;;;3.03;;
22502;SDS011;11418;48.118;9.992;2023-02-01T04:26:31;5.63;;;2.65;;
22502;SDS011;11418;48.118;9.992;2023-02-01T04:30:32;4.82;;;2.95;;
22502;SDS011;11418;48.118;9.992;2023-02-01T04:34:33;5.22;;;2.65;;
22502;SDS011;11418;48.118;9.992;2023-02-01T04:38:33;5.32;;;2.83;;
22502;SDS011;11418;48.118;9.992;2023-02-01T04:42:34;3.78;;;2.13;;
22502;SDS011;11418;48.118;9.992;2023-02-01T04:46:34;4.80;;;2.72;;
22502;SDS011;11418;48.118;9.992;2023-02-01T04:50:35;4.40;;;2.75;;
22502;SDS011;11418;48.118;9.992;2023-02-01T04:54:35;4.63;;;2.83;;
22502;SDS011;11418;48.118;9.992;2023-02-01T04:58:36;6.78;;;3.20;;
22502;SDS011;11418;48.118;9.992;2023-02-01T05:02:36;4.90;;;2.97;;
22502;SDS011;11418;48.118;9.992;2023-02-01T05:06:37;5.53;;;2.70;;
22502;SDS011;11418;48.118;9.992;2023-02-01T05:10:38;4.88;;;2.85;;
22502;SDS011;11418;48.118;9.992;2023-02-01T05:14:38;5.65;;;2.65;;
22502;SDS011;11418;48.118;9.992;2023-02-01T05:18:39;5.75;;;2.75;;
22502;SDS011;11418;48.118;9.992;2023-02-01T05:22:40;8.63;;;3.45;;
22502;SDS011;11418;48.118;9.992;2023-02-01T05:26:42;5.32;;;2.40;;
22502;SDS011;11418;48.118;9.992;2023-02-01T05:30:42;8.38;;;3.58;;
22502;SDS011;11418;48.118;9.992;2023-02-01T05:34:43;9.55;;;3.95;;
22502;SDS011;11418;48.118;9.992;2023-02-01T05:38:43;6.32;;;2.80;;
22502;SDS011;11418;48.118;9.992;2023-02-01T05:42:44;7.65;;;3.88;;
22502;SDS011;11418;48.118;9.992;2023-02-01T05:46:45;15.45;;;5.90;;
22502;SDS011;11418;48.118;9.992;2023-02-01T05:50:45;5.55;;;3.40;;
22502;SDS011;11418;48.118;9.992;2023-02-01T05:54:46;7.05;;;2.90;;
22502;SDS011;11418;48.118;9.992;2023-02-01T05:58:47;5.47;;;3.45;;
22502;SDS011;11418;48.118;9.992;2023-02-01T06:02:47;6.03;;;3.00;;
22502;SDS011;11418;48.118;9.992;2023-02-01T06:06:48;4.38;;;2.35;;
22502;SDS011;11418;48.118;9.992;2023-02-01T06:10:50;5.97;;;2.85;;
22502;SDS011;11418;48.118;9.992;2023-02-01T06:14:57;6.88;;;2.78;;
22502;SDS011;11418;48.118;9.992;2023-02-01T06:18:58;4.22;;;1.92;;
22502;SDS011;11418;48.118;9.992;2023-02-01T06:22:59;5.93;;;2.60;;
22502;SDS011;11418;48.118;9.992;2023-02-01T06:26:59;5.13;;;2.88;;
22502;SDS011;11418;48.118;9.992;2023-02-01T06:31:06;7.05;;;3.25;;
22502;SDS011;11418;48.118;9.992;2023-02-01T06:35:07;2.65;;;1.85;;
22502;SDS011;11418;48.118;9.992;2023-02-01T06:39:11;4.65;;;2.30;;
22502;SDS011;11418;48.118;9.992;2023-02-01T06:43:15;3.50;;;1.65;;
22502;SDS011;11418;48.118;9.992;2023-02-01T06:47:16;6.82;;;3.00;;
22502;SDS011;11418;48.118;9.992;2023-02-01T06:51:24;4.97;;;2.88;;
22502;SDS011;11418;48.118;9.992;2023-02-01T06:55:25;4.33;;;2.67;;
22502;SDS011;11418;48.118;9.992;2023-02-01T06:59:26;6.90;;;3.63;;
22502;SDS011;11418;48.118;9.992;2023-02-01T07:03:26;8.93;;;4.10;;
22502;SDS011;11418;48.118;9.992;2023-02-01T07:07:27;6.13;;;3.63;;
22502;SDS011;11418;48.118;9.992;2023-02-01T07:11:28;7.55;;;3.72;;
22502;SDS011;11418;48.118;9.992;2023-02-01T07:15:28;10.65;;;3.88;;
22502;SDS011;11418;48.118;9.992;2023-02-01T07:19:29;15.57;;;4.97;;
22502;SDS011;11418;48.118;9.992;2023-02-01T07:23:30;7.80;;;4.45;;
22502;SDS011;11418;48.118;9.992;2023-02-01T07:27:30;7.63;;;4.65;;
22502;SDS011;11418;48.118;9.992;2023-02-01T07:31:33;6.25;;;3.55;;
22502;SDS011;11418;48.118;9.992;2023-02-01T07:35:34;6.85;;;3.88;;
22502;SDS011;11418;48.118;9.992;2023-02-01T07:39:34;8.85;;;4.38;;
22502;SDS011;11418;48.118;9.992;2023-02-01T07:43:35;5.55;;;3.17;;
22502;SDS011;11418;48.118;9.992;2023-02-01T07:47:36;7.43;;;4.00;;
22502;SDS011;11418;48.118;9.992;2023-02-01T07:51:36;8.27;;;5.13;;
22502;SDS011;11418;48.118;9.992;2023-02-01T07:55:37;10.05;;;4.50;;
22502;SDS011;11418;48.118;9.992;2023-02-01T07:59:38;7.18;;;3.42;;
22502;SDS011;11418;48.118;9.992;2023-02-01T08:03:59;7.63;;;4.53;;
22502;SDS011;11418;48.118;9.992;2023-02-01T08:08:02;6.00;;;2.63;;
22502;SDS011;11418;48.118;9.992;2023-02-01T08:12:02;6.65;;;2.88;;
22502;SDS011;11418;48.118;9.992;2023-02-01T08:16:04;8.35;;;4.28;;
22502;SDS011;11418;48.118;9.992;2023-02-01T08:20:06;8.43;;;3.03;;
22502;SDS011;11418;48.118;9.992;2023-02-01T08:24:08;6.10;;;3.45;;
22502;SDS011;11418;48.118;9.992;2023-02-01T08:28:09;6.13;;;3.75;;
22502;SDS011;11418;48.118;9.992;2023-02-01T08:32:10;6.15;;;2.95;;
22502;SDS011;11418;48.118;9.992;2023-02-01T08:36:11;4.78;;;2.28;;
22502;SDS011;11418;48.118;9.992;2023-02-01T08:40:12;4.22;;;2.25;;
22502;SDS011;11418;48.118;9.992;2023-02-01T08:44:13;7.78;;;3.55;;
22502;SDS011;11418;48.118;9.992;2023-02-01T08:48:14;5.93;;;2.90;;
22502;SDS011;11418;48.118;9.992;2023-02-01T08:52:15;6.82;;;3.13;;
22502;SDS011;11418;48.118;9.992;2023-02-01T08:56:17;8.00;;;3.05;;
22502;SDS011;11418;48.118;9.992;2023-02-01T09:00:18;5.93;;;2.90;;
22502;SDS011;11418;48.118;9.992;2023-02-01T09:04:19;5.15;;;3.13;;
22502;SDS011;11418;48.118;9.992;2023-02-01T09:08:20;8.32;;;3.03;;
22502;SDS011;11418;48.118;9.992;2023-02-01T09:12:20;7.75;;;3.65;;
22502;SDS011;11418;48.118;9.992;2023-02-01T09:16:21;5.97;;;2.50;;
22502;SDS011;11418;48.118;9.992;2023-02-01T09:20:21;6.43;;;3.03;;
22502;SDS011;11418;48.118;9.992;2023-02-01T09:24:24;5.10;;;2.63;;
22502;SDS011;11418;48.118;9.992;2023-02-01T09:28:24;4.70;;;3.08;;
22502;SDS011;11418;48.118;9.992;2023-02-01T09:32:25;5.22;;;2.38;;
22502;SDS011;11418;48.118;9.992;2023-02-01T09:36:25;6.40;;;2.70;;
22502;SDS011;11418;48.118;9.992;2023-02-01T09:40:26;5.60;;;2.95;;
22502;SDS011;11418;48.118;9.992;2023-02-01T09:44:31;4.35;;;2.92;;
22502;SDS011;11418;48.118;9.992;2023-02-01T09:48:53;4.53;;;2.38;;
22502;SDS011;11418;48.118;9.992;2023-02-01T09:52:58;9.52;;;4.47;;
22502;SDS011;11418;48.118;9.992;2023-02-01T09:57:26;6.35;;;3.40;;
22502;SDS011;11418;48.118;9.992;2023-02-01T10:01:33;7.05;;;2.30;;
22502;SDS011;11418;48.118;9.992;2023-02-01T10:05:42;5.75;;;2.42;;
22502;SDS011;11418;48.118;9.992;2023-02-01T10:10:01;1.92;;;1.08;;
22502;SDS011;11418;48.118;9.992;2023-02-01T10:18:49;5.78;;;3.25;;
22502;SDS011;11418;48.118;9.992;2023-02-01T10:27:14;4.88;;;2.65;;
22502;SDS011;11418;48.118;9.992;2023-02-01T10:31:22;5.90;;;3.20;;
22502;SDS011;11418;48.118;9.992;2023-02-01T10:35:31;6.40;;;2.92;;
22502;SDS011;11418;48.118;9.992;2023-02-01T10:43:36;4.65;;;2.85;;
22502;SDS011;11418;48.118;9.992;2023-02-01T10:47:39;8.30;;;3.83;;
22502;SDS011;11418;48.118;9.992;2023-02-01T10:55:45;6.95;;;4.03;;
22502;SDS011;11418;48.118;9.992;2023-02-01T10:59:51;3.30;;;1.83;;
22502;SDS011;11418;48.118;9.992;2023-02-01T11:07:57;6.30;;;3.25;;
22502;SDS011;11418;48.118;9.992;2023-02-01T11:12:00;6.45;;;3.25;;
22502;SDS011;11418;48.118;9.992;2023-02-01T11:16:01;6.78;;;3.22;;
22502;SDS011;11418;48.118;9.992;2023-02-01T11:20:04;7.88;;;3.75;;
22502;SDS011;11418;48.118;9.992;2023-02-01T11:24:25;5.70;;;3.28;;
22502;SDS011;11418;48.118;9.992;2023-02-01T11:28:32;8.70;;;3.60;;
22502;SDS011;11418;48.118;9.992;2023-02-01T11:32:35;5.90;;;3.03;;
22502;SDS011;11418;48.118;9.992;2023-02-01T11:36:38;4.82;;;3.00;;
22502;SDS011;11418;48.118;9.992;2023-02-01T11:40:40;2.63;;;1.58;;
22502;SDS011;11418;48.118;9.992;2023-02-01T11:44:44;11.27;;;2.67;;
22502;SDS011;11418;48.118;9.992;2023-02-01T11:48:46;5.00;;;2.30;;
22502;SDS011;11418;48.118;9.992;2023-02-01T11:52:57;4.35;;;2.60;;
22502;SDS011;11418;48.118;9.992;2023-02-01T12:05:41;5.07;;;3.25;;
22502;SDS011;11418;48.118;9.992;2023-02-01T12:23:21;5.68;;;2.40;;
22502;SDS011;11418;48.118;9.992;2023-02-01T12:32:02;4.65;;;2.58;;
22502;SDS011;11418;48.118;9.992;2023-02-01T12:35:49;1.50;;;1.02;;
22502;SDS011;11418;48.118;9.992;2023-02-01T12:40:17;4.45;;;2.17;;
22502;SDS011;11418;48.118;9.992;2023-02-01T12:44:50;3.17;;;1.85;;
22502;SDS011;11418;48.118;9.992;2023-02-01T12:48:57;8.50;;;2.95;;
22502;SDS011;11418;48.118;9.992;2023-02-01T12:53:12;3.72;;;2.20;;
22502;SDS011;11418;48.118;9.992;2023-02-01T12:57:30;2.67;;;0.93;;
22502;SDS011;11418;48.118;9.992;2023-02-01T13:01:41;4.00;;;2.33;;
22502;SDS011;11418;48.118;9.992;2023-02-01T13:09:59;3.30;;;2.05;;
22502;SDS011;11418;48.118;9.992;2023-02-01T13:14:10;4.40;;;2.03;;
22502;SDS011;11418;48.118;9.992;2023-02-01T13:18:16;5.75;;;2.42;;
22502;SDS011;11418;48.118;9.992;2023-02-01T13:22:22;2.47;;;1.33;;
22502;SDS011;11418;48.118;9.992;2023-02-01T13:26:26;4.55;;;2.35;;
22502;SDS011;11418;48.118;9.992;2023-02-01T13:30:36;4.70;;;2.70;;
22502;SDS011;11418;48.118;9.992;2023-02-01T13:43:38;4.13;;;1.45;;
22502;SDS011;11418;48.118;9.992;2023-02-01T13:47:42;5.55;;;2.33;;
22502;SDS011;11418;48.118;9.992;2023-02-01T13:51:46;4.28;;;2.08;;
22502;SDS011;11418;48.118;9.992;2023-02-01T13:55:58;3.78;;;2.25;;
22502;SDS011;11418;48.118;9.992;2023-02-01T14:04:45;5.57;;;2.35;;
22502;SDS011;11418;48.118;9.992;2023-02-01T14:13:13;2.65;;;1.67;;
22502;SDS011;11418;48.118;9.992;2023-02-01T14:21:32;2.22;;;1.17;;
22502;SDS011;11418;48.118;9.992;2023-02-01T14:25:37;1.90;;;1.25;;
22502;SDS011;11418;48.118;9.992;2023-02-01T14:29:38;1.52;;;0.90;;
22502;SDS011;11418;48.118;9.992;2023-02-01T14:33:41;5.68;;;1.55;;
22502;SDS011;11418;48.118;9.992;2023-02-01T14:37:42;7.28;;;1.75;;
22502;SDS011;11418;48.118;9.992;2023-02-01T14:41:44;3.15;;;1.52;;
22502;SDS011;11418;48.118;9.992;2023-02-01T14:45:47;2.72;;;1.67;;
22502;SDS011;11418;48.118;9.992;2023-02-01T14:54:11;5.20;;;1.30;;
22502;SDS011;11418;48.118;9.992;2023-02-01T14:58:16;5.03;;;2.28;;
22502;SDS011;11418;48.118;9.992;2023-02-01T15:02:30;3.35;;;1.80;;
22502;SDS011;11418;48.118;9.992;2023-02-01T15:10:40;1.95;;;1.50;;
22502;SDS011;11418;48.118;9.992;2023-02-01T15:14:45;5.03;;;2.38;;
22502;SDS011;11418;48.118;9.992;2023-02-01T15:18:50;3.28;;;1.73;;
22502;SDS011;11418;48.118;9.992;2023-02-01T15:23:14;5.47;;;1.60;;
22502;SDS011;11418;48.118;9.992;2023-02-01T15:31:30;1.58;;;1.42;;
22502;SDS011;11418;48.118;9.992;2023-02-01T15:35:38;14.93;;;7.55;;
22502;SDS011;11418;48.118;9.992;2023-02-01T15:44:11;3.33;;;1.70;;
22502;SDS011;11418;48.118;9.992;2023-02-01T15:48:20;9.80;;;2.45;;
22502;SDS011;11418;48.118;9.992;2023-02-01T15:52:25;4.13;;;2.60;;
22502;SDS011;11418;48.118;9.992;2023-02-01T15:56:37;4.32;;;2.47;;
22502;SDS011;11418;48.118;9.992;2023-02-01T16:00:42;6.07;;;2.35;;
22502;SDS011;11418;48.118;9.992;2023-02-01T16:04:48;8.18;;;1.75;;
22502;SDS011;11418;48.118;9.992;2023-02-01T16:08:55;1.90;;;0.88;;
22502;SDS011;11418;48.118;9.992;2023-02-01T16:13:01;6.25;;;2.42;;
22502;SDS011;11418;48.118;9.992;2023-02-01T16:17:02;5.47;;;1.95;;
22502;SDS011;11418;48.118;9.992;2023-02-01T16:21:02;10.00;;;2.20;;
22502;SDS011;11418;48.118;9.992;2023-02-01T16:25:03;3.65;;;1.83;;
22502;SDS011;11418;48.118;9.992;2023-02-01T16:29:04;7.90;;;2.03;;
22502;SDS011;11418;48.118;9.992;2023-02-01T16:33:06;9.27;;;2.20;;
22502;SDS011;11418;48.118;9.992;2023-02-01T16:37:17;10.05;;;2.20;;
22502;SDS011;11418;48.118;9.992;2023-02-01T16:41:21;3.83;;;1.80;;
22502;SDS011;11418;48.118;9.992;2023-02-01T16:45:22;6.95;;;1.60;;
22502;SDS011;11418;48.118;9.992;2023-02-01T16:49:24;7.32;;;1.75;;
22502;SDS011;11418;48.118;9.992;2023-02-01T16:53:25;5.35;;;2.22;;
22502;SDS011;11418;48.118;9.992;2023-02-01T16:57:30;2.30;;;1.02;;
22502;SDS011;11418;48.118;9.992;2023-02-01T17:01:30;1.40;;;0.93;;
22502;SDS011;11418;48.118;9.992;2023-02-01T17:05:31;6.15;;;1.77;;
22502;SDS011;11418;48.118;9.992;2023-02-01T17:09:33;2.22;;;1.13;;
22502;SDS011;11418;48.118;9.992;2023-02-01T17:13:37;8.55;;;2.90;;
22502;SDS011;11418;48.118;9.992;2023-02-01T17:17:38;7.85;;;2.00;;
22502;SDS011;11418;48.118;9.992;2023-02-01T17:22:03;5.43;;;1.60;;
22502;SDS011;11418;48.118;9.992;2023-02-01T17:26:02;2.60;;;1.42;;
22502;SDS011;11418;48.118;9.992;2023-02-01T17:30:03;5.13;;;1.77;;
22502;SDS011;11418;48.118;9.992;2023-02-01T17:34:05;9.23;;;1.95;;
22502;SDS011;11418;48.118;9.992;2023-02-01T17:38:09;2.67;;;1.50;;
22502;SDS011;11418;48.118;9.992;2023-02-01T17:42:11;7.97;;;2.33;;
22502;SDS011;11418;48.118;9.992;2023-02-01T17:46:12;4.88;;;2.35;;
22502;SDS011;11418;48.118;9.992;2023-02-01T17:50:15;5.82;;;1.45;;
22502;SDS011;11418;48.118;9.992;2023-02-01T17:54:16;7.20;;;1.55;;
22502;SDS011;11418;48.118;9.992;2023-02-01T17:58:19;7.43;;;1.85;;
22502;SDS011;11418;48.118;9.992;2023-02-01T18:02:21;8.18;;;1.85;;
22502;SDS011;11418;48.118;9.992;2023-02-01T18:06:23;9.88;;;3.60;;
22502;SDS011;11418;48.118;9.992;2023-02-01T18:10:25;8.32;;;2.05;;
22502;SDS011;11418;48.118;9.992;2023-02-01T18:14:26;5.75;;;2.08;;
22502;SDS011;11418;48.118;9.992;2023-02-01T18:18:26;5.45;;;2.50;;
22502;SDS011;11418;48.118;9.992;2023-02-01T18:22:29;5.43;;;1.95;;
22502;SDS011;11418;48.118;9.992;2023-02-01T18:26:30;3.53;;;1.33;;
22502;SDS011;11418;48.118;9.992;2023-02-01T18:30:31;6.22;;;1.98;;
22502;SDS011;11418;48.118;9.992;2023-02-01T18:34:33;4.85;;;1.23;;
22502;SDS011;11418;48.118;9.992;2023-02-01T18:38:33;9.00;;;2.20;;
22502;SDS011;11418;48.118;9.992;2023-02-01T18:42:34;7.00;;;1.90;;
22502;SDS011;11418;48.118;9.992;2023-02-01T18:46:34;5.18;;;1.67;;
22502;SDS011;11418;48.118;9.992;2023-02-01T18:50:36;10.05;;;2.72;;
22502;SDS011;11418;48.118;9.992;2023-02-01T18:54:38;5.13;;;2.10;;
22502;SDS011;11418;48.118;9.992;2023-02-01T18:58:39;3.03;;;1.50;;
22502;SDS011;11418;48.118;9.992;2023-02-01T19:02:39;3.83;;;1.95;;
22502;SDS011;11418;48.118;9.992;2023-02-01T19:06:40;11.38;;;2.67;;
22502;SDS011;11418;48.118;9.992;2023-02-01T19:10:41;7.10;;;1.92;;
22502;SDS011;11418;48.118;9.992;2023-02-01T19:14:41;3.60;;;1.55;;
22502;SDS011;11418;48.118;9.992;2023-02-01T19:18:43;4.18;;;1.63;;
22502;SDS011;11418;48.118;9.992;2023-02-01T19:22:43;2.97;;;1.42;;
22502;SDS011;11418;48.118;9.992;2023-02-01T19:26:45;7.15;;;2.65;;
22502;SDS011;11418;48.118;9.992;2023-02-01T19:30:47;16.05;;;2.30;;
22502;SDS011;11418;48.118;9.992;2023-02-01T19:34:48;16.55;;;1.05;;
22502;SDS011;11418;48.118;9.992;2023-02-01T19:38:49;5.57;;;1.63;;
22502;SDS011;11418;48.118;9.992;2023-02-01T19:42:49;5.00;;;1.30;;
22502;SDS011;11418;48.118;9.992;2023-02-01T19:46:50;4.30;;;2.00;;
22502;SDS011;11418;48.118;9.992;2023-02-01T19:50:50;9.68;;;2.20;;
22502;SDS011;11418;48.118;9.992;2023-02-01T19:54:51;4.20;;;1.42;;
22502;SDS011;11418;48.118;9.992;2023-02-01T19:58:52;4.25;;;1.13;;
22502;SDS011;11418;48.118;9.992;2023-02-01T20:02:54;4.72;;;1.58;;
22502;SDS011;11418;48.118;9.992;2023-02-01T20:06:54;5.10;;;1.92;;
22502;SDS011;11418;48.118;9.992;2023-02-01T20:10:55;5.28;;;2.00;;
22502;SDS011;11418;48.118;9.992;2023-02-01T20:14:57;6.53;;;1.50;;
22502;SDS011;11418;48.118;9.992;2023-02-01T20:18:57;8.05;;;1.00;;
22502;SDS011;11418;48.118;9.992;2023-02-01T20:22:58;6.80;;;1.35;;
22502;SDS011;11418;48.118;9.992;2023-02-01T20:26:58;1.27;;;0.63;;
22502;SDS011;11418;48.118;9.992;2023-02-01T20:30:59;3.85;;;2.17;;
22502;SDS011;11418;48.118;9.992;2023-02-01T20:35:00;10.60;;;1.23;;
22502;SDS011;11418;48.118;9.992;2023-02-01T20:39:01;9.43;;;2.50;;
22502;SDS011;11418;48.118;9.992;2023-02-01T20:43:02;3.92;;;1.20;;
22502;SDS011;11418;48.118;9.992;2023-02-01T20:47:02;4.30;;;1.55;;
22502;SDS011;11418;48.118;9.992;2023-02-01T20:51:04;2.58;;;1.23;;
22502;SDS011;11418;48.118;9.992;2023-02-01T20:55:05;5.45;;;1.20;;
22502;SDS011;11418;48.118;9.992;2023-02-01T20:59:07;0.75;;;0.75;;
22502;SDS011;11418;48.118;9.992;2023-02-01T21:03:11;4.80;;;1.25;;
22502;SDS011;11418;48.118;9.992;2023-02-01T21:07:12;3.30;;;1.10;;
22502;SDS011;11418;48.118;9.992;2023-02-01T21:11:13;2.15;;;1.23;;
22502;SDS011;11418;48.118;9.992;2023-02-01T21:15:14;3.78;;;1.58;;
22502;SDS011;11418;48.118;9.992;2023-02-01T21:19:15;3.80;;;0.90;;
22502;SDS011;11418;48.118;9.992;2023-02-01T21:23:16;2.60;;;1.08;;
22502;SDS011;11418;48.118;9.992;2023-02-01T21:31:20;3.47;;;1.52;;
22502;SDS011;11418;48.118;9.992;2023-02-01T21:35:24;1.13;;;0.63;;
22502;SDS011;11418;48.118;9.992;2023-02-01T21:39:25;5.18;;;1.60;;
22502;SDS011;11418;48.118;9.992;2023-02-01T21:43:28;2.15;;;1.10;;
22502;SDS011;11418;48.118;9.992;2023-02-01T21:47:28;5.18;;;1.33;;
22502;SDS011;11418;48.118;9.992;2023-02-01T21:51:29;3.72;;;1.45;;
22502;SDS011;11418;48.118;9.992;2023-02-01T21:55:29;2.80;;;1.02;;
22502;SDS011;11418;48.118;9.992;2023-02-01T21:59:30;9.27;;;1.60;;
22502;SDS011;11418;48.118;9.992;2023-02-01T22:03:30;3.25;;;0.90;;
22502;SDS011;11418;48.118;9.992;2023-02-01T22:07:34;3.50;;;1.08;;
22502;SDS011;11418;48.118;9.992;2023-02-01T22:11:35;2.28;;;1.05;;
22502;SDS011;11418;48.118;9.992;2023-02-01T22:15:35;5.25;;;1.17;;
22502;SDS011;11418;48.118;9.992;2023-02-01T22:19:36;9.82;;;1.38;;
22502;SDS011;11418;48.118;9.992;2023-02-01T22:23:36;3.08;;;1.10;;
22502;SDS011;11418;48.118;9.992;2023-02-01T22:27:37;4.88;;;1.17;;
22502;SDS011;11418;48.118;9.992;2023-02-01T22:31:37;3.50;;;1.27;;
22502;SDS011;11418;48.118;9.992;2023-02-01T22:35:38;5.18;;;0.98;;
22502;SDS011;11418;48.118;9.992;2023-02-01T22:39:39;2.10;;;1.05;;
22502;SDS011;11418;48.118;9.992;2023-02-01T22:43:40;2.88;;;1.50;;
22502;SDS011;11418;48.118;9.992;2023-02-01T22:47:41;4.10;;;0.75;;
22502;SDS011;11418;48.118;9.992;2023-02-01T22:51:41;4.30;;;1.10;;
22502;SDS011;11418;48.118;9.992;2023-02-01T22:55:42;11.18;;;1.50;;
22502;SDS011;11418;48.118;9.992;2023-02-01T22:59:44;2.05;;;1.10;;
22502;SDS011;11418;48.118;9.992;2023-02-01T23:03:44;5.68;;;1.67;;
22502;SDS011;11418;48.118;9.992;2023-02-01T23:07:45;7.00;;;1.80;;
22502;SDS011;11418;48.118;9.992;2023-02-01T23:11:48;1.38;;;0.85;;
22502;SDS011;11418;48.118;9.992;2023-02-01T23:15:48;0.57;;;0.47;;
22502;SDS011;11418;48.118;9.992;2023-02-01T23:19:49;3.20;;;0.85;;
22502;SDS011;11418;48.118;9.992;2023-02-01T23:23:50;2.55;;;1.05;;
22502;SDS011;11418;48.118;9.992;2023-02-01T23:27:52;1.38;;;0.70;;
22502;SDS011;11418;48.118;9.992;2023-02-01T23:31:53;0.65;;;0.40;;
22502;SDS011;11418;48.118;9.992;2023-02-01T23:35:54;6.10;;;1.38;;
22502;SDS011;11418;48.118;9.992;2023-02-01T23:39:56;1.23;;;0.82;;
22502;SDS011;11418;48.118;9.992;2023-02-01T23:43:56;4.72;;;0.90;;
22502;SDS011;11418;48.118;9.992;2023-02-01T23:47:57;5.95;;;1.42;;
22502;SDS011;11418;48.118;9.992;2023-02-01T23:51:57;5.57;;;0.90;;
22502;SDS011;11418;48.118;9.992;2023-02-01T23:55:58;4.00;;;1.35;;
22502;SDS011;11418;48.118;9.992;2023-02-01T23:59:59;1.73;;;0.55;;
